sensor_id;sensor_type;location;lat;lon;timestamp;P1;durP1;ratioP1;P2;durP2;ratioP2
38901;SDS011;24661;53.566;9.910;2023-08-20T00:00:18;15.47;;;6.77;;
38901;SDS011;24661;53.566;9.910;2023-08-20T00:02:45;18.53;;;7.37;;
38901;SDS011;24661;53.566;9.910;2023-08-20T00:05:11;21.43;;;7.70;;
38901;SDS011;24661;53.566;9.910;2023-08-20T00:07:38;19.10;;;8.07;;
38901;SDS011;24661;53.566;9.910;2023-08-20T00:10:04;15.07;;;6.77;;
38901;SDS011;24661;53.566;9.910;2023-08-20T00:12:30;19.83;;;8.27;;
38901;SDS011;24661;53.566;9.910;2023-08-20T00:14:57;17.57;;;8.33;;
38901;SDS011;24661;53.566;9.910;2023-08-20T00:17:29;14.20;;;7.00;;
38901;SDS011;24661;53.566;9.910;2023-08-20T00:19:56;18.27;;;8.13;;
38901;SDS011;24661;53.566;9.910;2023-08-20T00:22:22;21.73;;;7.57;;
38901;SDS011;24661;53.566;9.910;2023-08-20T00:24:50;22.27;;;8.57;;
38901;SDS011;24661;53.566;9.910;2023-08-20T00:27:17;25.80;;;8.67;;
38901;SDS011;24661;53.566;9.910;2023-08-20T00:29:43;17.50;;;8.63;;
38901;SDS011;24661;53.566;9.910;2023-08-20T00:32:09;17.13;;;9.70;;
38901;SDS011;24661;53.566;9.910;2023-08-20T00:34:35;22.97;;;9.60;;
38901;SDS011;24661;53.566;9.910;2023-08-20T00:37:01;23.40;;;9.53;;
38901;SDS011;24661;53.566;9.910;2023-08-20T00:39:28;11.43;;;8.03;;
38901;SDS011;24661;53.566;9.910;2023-08-20T00:41:54;22.80;;;10.07;;
38901;SDS011;24661;53.566;9.910;2023-08-20T00:44:19;24.80;;;10.33;;
38901;SDS011;24661;53.566;9.910;2023-08-20T00:46:45;23.17;;;9.77;;
38901;SDS011;24661;53.566;9.910;2023-08-20T00:49:11;18.80;;;8.90;;
38901;SDS011;24661;53.566;9.910;2023-08-20T00:51:36;18.73;;;10.43;;
38901;SDS011;24661;53.566;9.910;2023-08-20T00:54:03;20.50;;;9.60;;
38901;SDS011;24661;53.566;9.910;2023-08-20T00:56:29;14.57;;;8.43;;
38901;SDS011;24661;53.566;9.910;2023-08-20T00:58:55;16.67;;;8.70;;
38901;SDS011;24661;53.566;9.910;2023-08-20T01:01:23;18.50;;;9.60;;
38901;SDS011;24661;53.566;9.910;2023-08-20T01:03:49;17.80;;;9.13;;
38901;SDS011;24661;53.566;9.910;2023-08-20T01:06:18;22.03;;;9.70;;
38901;SDS011;24661;53.566;9.910;2023-08-20T01:08:50;25.20;;;10.20;;
38901;SDS011;24661;53.566;9.910;2023-08-20T01:11:26;26.63;;;10.90;;
38901;SDS011;24661;53.566;9.910;2023-08-20T01:13:58;21.73;;;9.80;;
38901;SDS011;24661;53.566;9.910;2023-08-20T01:16:24;19.27;;;10.00;;
38901;SDS011;24661;53.566;9.910;2023-08-20T01:18:50;24.63;;;10.73;;
38901;SDS011;24661;53.566;9.910;2023-08-20T01:24:05;19.60;;;10.23;;
38901;SDS011;24661;53.566;9.910;2023-08-20T01:29:38;18.63;;;10.60;;
38901;SDS011;24661;53.566;9.910;2023-08-20T01:32:04;17.80;;;9.30;;
38901;SDS011;24661;53.566;9.910;2023-08-20T01:34:30;22.73;;;10.57;;
38901;SDS011;24661;53.566;9.910;2023-08-20T01:36:56;18.97;;;9.70;;
38901;SDS011;24661;53.566;9.910;2023-08-20T01:39:22;22.87;;;11.53;;
38901;SDS011;24661;53.566;9.910;2023-08-20T01:41:48;29.37;;;11.70;;
38901;SDS011;24661;53.566;9.910;2023-08-20T01:44:14;21.37;;;10.80;;
38901;SDS011;24661;53.566;9.910;2023-08-20T01:46:39;28.53;;;11.87;;
38901;SDS011;24661;53.566;9.910;2023-08-20T01:49:05;23.97;;;10.57;;
38901;SDS011;24661;53.566;9.910;2023-08-20T01:51:30;23.27;;;9.93;;
38901;SDS011;24661;53.566;9.910;2023-08-20T01:53:56;22.73;;;10.27;;
38901;SDS011;24661;53.566;9.910;2023-08-20T01:56:21;24.30;;;10.67;;
38901;SDS011;24661;53.566;9.910;2023-08-20T01:58:47;21.47;;;9.43;;
38901;SDS011;24661;53.566;9.910;2023-08-20T02:01:12;21.40;;;9.70;;
38901;SDS011;24661;53.566;9.910;2023-08-20T02:03:38;15.73;;;9.50;;
38901;SDS011;24661;53.566;9.910;2023-08-20T02:06:04;18.67;;;9.23;;
38901;SDS011;24661;53.566;9.910;2023-08-20T02:08:29;25.70;;;10.10;;
38901;SDS011;24661;53.566;9.910;2023-08-20T02:11:01;18.07;;;9.77;;
38901;SDS011;24661;53.566;9.910;2023-08-20T02:13:28;33.37;;;13.17;;
38901;SDS011;24661;53.566;9.910;2023-08-20T02:15:57;66.60;;;17.00;;
38901;SDS011;24661;53.566;9.910;2023-08-20T02:18:27;47.40;;;16.23;;
38901;SDS011;24661;53.566;9.910;2023-08-20T02:20:53;93.63;;;16.83;;
38901;SDS011;24661;53.566;9.910;2023-08-20T02:23:18;111.00;;;17.67;;
38901;SDS011;24661;53.566;9.910;2023-08-20T02:25:44;93.77;;;15.93;;
38901;SDS011;24661;53.566;9.910;2023-08-20T02:28:10;71.20;;;17.00;;
38901;SDS011;24661;53.566;9.910;2023-08-20T02:30:42;70.77;;;16.93;;
38901;SDS011;24661;53.566;9.910;2023-08-20T02:33:09;396.37;;;36.77;;
38901;SDS011;24661;53.566;9.910;2023-08-20T02:35:35;96.17;;;17.27;;
38901;SDS011;24661;53.566;9.910;2023-08-20T02:38:01;74.07;;;15.40;;
38901;SDS011;24661;53.566;9.910;2023-08-20T02:40:27;52.80;;;15.37;;
38901;SDS011;24661;53.566;9.910;2023-08-20T02:42:53;60.47;;;15.27;;
38901;SDS011;24661;53.566;9.910;2023-08-20T02:45:18;76.53;;;15.30;;
38901;SDS011;24661;53.566;9.910;2023-08-20T02:47:44;120.53;;;17.67;;
38901;SDS011;24661;53.566;9.910;2023-08-20T02:50:09;50.80;;;13.53;;
38901;SDS011;24661;53.566;9.910;2023-08-20T02:52:35;49.13;;;11.50;;
38901;SDS011;24661;53.566;9.910;2023-08-20T02:55:01;70.53;;;15.23;;
38901;SDS011;24661;53.566;9.910;2023-08-20T02:57:29;35.53;;;12.87;;
38901;SDS011;24661;53.566;9.910;2023-08-20T02:59:55;63.10;;;13.80;;
38901;SDS011;24661;53.566;9.910;2023-08-20T03:02:20;36.83;;;11.83;;
38901;SDS011;24661;53.566;9.910;2023-08-20T03:04:46;42.67;;;12.80;;
38901;SDS011;24661;53.566;9.910;2023-08-20T03:07:12;134.60;;;15.27;;
38901;SDS011;24661;53.566;9.910;2023-08-20T03:09:37;109.47;;;14.10;;
38901;SDS011;24661;53.566;9.910;2023-08-20T03:12:03;109.87;;;14.70;;
38901;SDS011;24661;53.566;9.910;2023-08-20T03:14:29;93.47;;;13.83;;
38901;SDS011;24661;53.566;9.910;2023-08-20T03:16:54;89.50;;;16.07;;
38901;SDS011;24661;53.566;9.910;2023-08-20T03:19:20;106.13;;;15.23;;
38901;SDS011;24661;53.566;9.910;2023-08-20T03:21:46;65.67;;;13.93;;
38901;SDS011;24661;53.566;9.910;2023-08-20T03:24:11;87.70;;;15.97;;
38901;SDS011;24661;53.566;9.910;2023-08-20T03:26:37;89.03;;;15.97;;
38901;SDS011;24661;53.566;9.910;2023-08-20T03:29:02;70.67;;;16.67;;
38901;SDS011;24661;53.566;9.910;2023-08-20T03:31:28;149.00;;;19.30;;
38901;SDS011;24661;53.566;9.910;2023-08-20T03:33:54;200.00;;;23.60;;
38901;SDS011;24661;53.566;9.910;2023-08-20T03:36:19;93.80;;;18.13;;
38901;SDS011;24661;53.566;9.910;2023-08-20T03:38:45;123.00;;;18.00;;
38901;SDS011;24661;53.566;9.910;2023-08-20T03:41:11;97.53;;;18.53;;
38901;SDS011;24661;53.566;9.910;2023-08-20T03:43:36;101.73;;;18.67;;
38901;SDS011;24661;53.566;9.910;2023-08-20T03:46:02;92.70;;;19.67;;
38901;SDS011;24661;53.566;9.910;2023-08-20T03:48:28;142.17;;;22.10;;
38901;SDS011;24661;53.566;9.910;2023-08-20T03:50:53;76.50;;;19.63;;
38901;SDS011;24661;53.566;9.910;2023-08-20T03:53:19;102.97;;;20.67;;
38901;SDS011;24661;53.566;9.910;2023-08-20T03:55:48;67.10;;;18.80;;
38901;SDS011;24661;53.566;9.910;2023-08-20T03:58:14;62.77;;;18.40;;
38901;SDS011;24661;53.566;9.910;2023-08-20T04:00:40;64.60;;;17.07;;
38901;SDS011;24661;53.566;9.910;2023-08-20T04:03:06;59.67;;;17.90;;
38901;SDS011;24661;53.566;9.910;2023-08-20T04:05:38;30.73;;;13.93;;
38901;SDS011;24661;53.566;9.910;2023-08-20T04:08:04;38.73;;;14.10;;
38901;SDS011;24661;53.566;9.910;2023-08-20T04:10:31;59.43;;;13.80;;
38901;SDS011;24661;53.566;9.910;2023-08-20T04:12:57;88.83;;;14.57;;
38901;SDS011;24661;53.566;9.910;2023-08-20T04:15:23;99.50;;;14.23;;
38901;SDS011;24661;53.566;9.910;2023-08-20T04:17:49;55.97;;;12.33;;
38901;SDS011;24661;53.566;9.910;2023-08-20T04:20:14;67.23;;;14.50;;
38901;SDS011;24661;53.566;9.910;2023-08-20T04:22:40;49.40;;;13.63;;
38901;SDS011;24661;53.566;9.910;2023-08-20T04:25:07;98.00;;;13.37;;
38901;SDS011;24661;53.566;9.910;2023-08-20T04:27:32;117.17;;;13.33;;
38901;SDS011;24661;53.566;9.910;2023-08-20T04:29:58;80.17;;;12.93;;
38901;SDS011;24661;53.566;9.910;2023-08-20T04:32:24;103.60;;;13.20;;
38901;SDS011;24661;53.566;9.910;2023-08-20T04:34:49;46.07;;;10.20;;
38901;SDS011;24661;53.566;9.910;2023-08-20T04:37:17;73.23;;;11.73;;
38901;SDS011;24661;53.566;9.910;2023-08-20T04:39:45;59.07;;;9.90;;
38901;SDS011;24661;53.566;9.910;2023-08-20T04:42:11;43.03;;;10.17;;
38901;SDS011;24661;53.566;9.910;2023-08-20T04:44:36;31.97;;;8.53;;
38901;SDS011;24661;53.566;9.910;2023-08-20T04:47:02;64.40;;;9.47;;
38901;SDS011;24661;53.566;9.910;2023-08-20T04:49:27;32.30;;;8.00;;
38901;SDS011;24661;53.566;9.910;2023-08-20T04:51:55;27.07;;;8.00;;
38901;SDS011;24661;53.566;9.910;2023-08-20T04:54:20;14.43;;;7.50;;
38901;SDS011;24661;53.566;9.910;2023-08-20T04:56:46;20.70;;;8.37;;
38901;SDS011;24661;53.566;9.910;2023-08-20T04:59:11;13.40;;;7.97;;
38901;SDS011;24661;53.566;9.910;2023-08-20T05:01:38;16.27;;;8.00;;
38901;SDS011;24661;53.566;9.910;2023-08-20T05:04:04;31.87;;;7.80;;
38901;SDS011;24661;53.566;9.910;2023-08-20T05:06:30;25.10;;;7.10;;
38901;SDS011;24661;53.566;9.910;2023-08-20T05:08:55;37.70;;;7.63;;
38901;SDS011;24661;53.566;9.910;2023-08-20T05:11:21;33.87;;;7.03;;
38901;SDS011;24661;53.566;9.910;2023-08-20T05:13:47;27.13;;;7.13;;
38901;SDS011;24661;53.566;9.910;2023-08-20T05:16:14;23.63;;;7.50;;
38901;SDS011;24661;53.566;9.910;2023-08-20T05:18:40;17.37;;;6.83;;
38901;SDS011;24661;53.566;9.910;2023-08-20T05:21:07;19.87;;;6.70;;
38901;SDS011;24661;53.566;9.910;2023-08-20T05:23:32;29.63;;;7.67;;
38901;SDS011;24661;53.566;9.910;2023-08-20T05:25:58;35.73;;;7.47;;
38901;SDS011;24661;53.566;9.910;2023-08-20T05:28:24;18.23;;;7.00;;
38901;SDS011;24661;53.566;9.910;2023-08-20T05:30:54;9.57;;;7.03;;
38901;SDS011;24661;53.566;9.910;2023-08-20T05:33:23;17.13;;;8.40;;
38901;SDS011;24661;53.566;9.910;2023-08-20T05:35:49;9.90;;;7.47;;
38901;SDS011;24661;53.566;9.910;2023-08-20T05:38:14;95.83;;;11.43;;
38901;SDS011;24661;53.566;9.910;2023-08-20T05:40:40;14.30;;;7.37;;
38901;SDS011;24661;53.566;9.910;2023-08-20T05:43:06;41.73;;;8.73;;
38901;SDS011;24661;53.566;9.910;2023-08-20T05:45:32;9.47;;;6.33;;
38901;SDS011;24661;53.566;9.910;2023-08-20T05:47:57;35.10;;;7.00;;
38901;SDS011;24661;53.566;9.910;2023-08-20T05:50:23;15.17;;;6.80;;
38901;SDS011;24661;53.566;9.910;2023-08-20T05:52:49;9.97;;;7.30;;
38901;SDS011;24661;53.566;9.910;2023-08-20T05:55:14;27.73;;;8.90;;
38901;SDS011;24661;53.566;9.910;2023-08-20T05:57:40;17.13;;;10.20;;
38901;SDS011;24661;53.566;9.910;2023-08-20T06:00:08;14.77;;;10.33;;
38901;SDS011;24661;53.566;9.910;2023-08-20T06:02:34;15.03;;;10.27;;
38901;SDS011;24661;53.566;9.910;2023-08-20T06:04:59;13.53;;;8.77;;
38901;SDS011;24661;53.566;9.910;2023-08-20T06:07:25;12.40;;;8.97;;
38901;SDS011;24661;53.566;9.910;2023-08-20T06:09:51;15.60;;;10.00;;
38901;SDS011;24661;53.566;9.910;2023-08-20T06:12:17;18.00;;;9.10;;
38901;SDS011;24661;53.566;9.910;2023-08-20T06:14:42;16.63;;;10.57;;
38901;SDS011;24661;53.566;9.910;2023-08-20T06:17:08;25.33;;;11.53;;
38901;SDS011;24661;53.566;9.910;2023-08-20T06:19:33;16.80;;;10.17;;
38901;SDS011;24661;53.566;9.910;2023-08-20T06:21:59;14.17;;;10.00;;
38901;SDS011;24661;53.566;9.910;2023-08-20T06:24:24;18.03;;;10.73;;
38901;SDS011;24661;53.566;9.910;2023-08-20T06:26:51;13.60;;;9.20;;
38901;SDS011;24661;53.566;9.910;2023-08-20T06:29:17;17.20;;;8.83;;
38901;SDS011;24661;53.566;9.910;2023-08-20T06:31:42;14.93;;;9.30;;
38901;SDS011;24661;53.566;9.910;2023-08-20T06:34:08;13.30;;;9.50;;
38901;SDS011;24661;53.566;9.910;2023-08-20T06:36:34;21.70;;;11.17;;
38901;SDS011;24661;53.566;9.910;2023-08-20T06:39:00;15.07;;;10.33;;
38901;SDS011;24661;53.566;9.910;2023-08-20T06:41:26;16.03;;;10.20;;
38901;SDS011;24661;53.566;9.910;2023-08-20T06:43:51;17.07;;;11.43;;
38901;SDS011;24661;53.566;9.910;2023-08-20T06:46:17;14.23;;;10.90;;
38901;SDS011;24661;53.566;9.910;2023-08-20T06:48:43;12.67;;;10.00;;
38901;SDS011;24661;53.566;9.910;2023-08-20T06:51:14;12.13;;;9.57;;
38901;SDS011;24661;53.566;9.910;2023-08-20T06:53:41;12.63;;;8.93;;
38901;SDS011;24661;53.566;9.910;2023-08-20T06:56:07;10.50;;;8.47;;
38901;SDS011;24661;53.566;9.910;2023-08-20T06:58:34;12.60;;;8.37;;
38901;SDS011;24661;53.566;9.910;2023-08-20T07:01:00;10.00;;;8.57;;
38901;SDS011;24661;53.566;9.910;2023-08-20T07:03:33;10.97;;;8.70;;
38901;SDS011;24661;53.566;9.910;2023-08-20T07:06:00;10.73;;;8.90;;
38901;SDS011;24661;53.566;9.910;2023-08-20T07:08:26;10.70;;;8.63;;
38901;SDS011;24661;53.566;9.910;2023-08-20T07:10:52;13.80;;;9.10;;
38901;SDS011;24661;53.566;9.910;2023-08-20T07:13:17;14.23;;;9.50;;
38901;SDS011;24661;53.566;9.910;2023-08-20T07:15:43;13.27;;;10.20;;
38901;SDS011;24661;53.566;9.910;2023-08-20T07:18:09;16.10;;;10.20;;
38901;SDS011;24661;53.566;9.910;2023-08-20T07:20:38;18.27;;;11.20;;
38901;SDS011;24661;53.566;9.910;2023-08-20T07:23:04;13.23;;;9.40;;
38901;SDS011;24661;53.566;9.910;2023-08-20T07:25:29;14.47;;;10.00;;
38901;SDS011;24661;53.566;9.910;2023-08-20T07:27:55;18.83;;;10.87;;
38901;SDS011;24661;53.566;9.910;2023-08-20T07:30:24;16.87;;;11.80;;
38901;SDS011;24661;53.566;9.910;2023-08-20T07:32:51;21.27;;;10.73;;
38901;SDS011;24661;53.566;9.910;2023-08-20T07:35:16;16.57;;;10.57;;
38901;SDS011;24661;53.566;9.910;2023-08-20T07:37:42;12.47;;;8.83;;
38901;SDS011;24661;53.566;9.910;2023-08-20T07:40:07;14.83;;;9.73;;
38901;SDS011;24661;53.566;9.910;2023-08-20T07:42:34;13.10;;;8.33;;
38901;SDS011;24661;53.566;9.910;2023-08-20T07:45:00;11.20;;;8.20;;
38901;SDS011;24661;53.566;9.910;2023-08-20T07:47:26;11.10;;;8.43;;
38901;SDS011;24661;53.566;9.910;2023-08-20T07:49:53;11.77;;;7.50;;
38901;SDS011;24661;53.566;9.910;2023-08-20T07:52:19;11.97;;;7.37;;
38901;SDS011;24661;53.566;9.910;2023-08-20T07:54:45;12.10;;;6.97;;
38901;SDS011;24661;53.566;9.910;2023-08-20T07:57:11;10.47;;;7.20;;
38901;SDS011;24661;53.566;9.910;2023-08-20T07:59:37;8.80;;;6.53;;
38901;SDS011;24661;53.566;9.910;2023-08-20T08:02:03;11.87;;;6.73;;
38901;SDS011;24661;53.566;9.910;2023-08-20T08:04:29;10.90;;;6.27;;
38901;SDS011;24661;53.566;9.910;2023-08-20T08:06:54;9.10;;;6.47;;
38901;SDS011;24661;53.566;9.910;2023-08-20T08:09:21;11.83;;;6.57;;
38901;SDS011;24661;53.566;9.910;2023-08-20T08:11:52;10.37;;;6.00;;
38901;SDS011;24661;53.566;9.910;2023-08-20T08:14:18;7.77;;;5.07;;
38901;SDS011;24661;53.566;9.910;2023-08-20T08:16:44;8.83;;;5.23;;
38901;SDS011;24661;53.566;9.910;2023-08-20T08:19:10;9.33;;;4.90;;
38901;SDS011;24661;53.566;9.910;2023-08-20T08:21:36;7.53;;;4.70;;
38901;SDS011;24661;53.566;9.910;2023-08-20T08:24:03;10.87;;;5.57;;
38901;SDS011;24661;53.566;9.910;2023-08-20T08:26:29;10.77;;;4.17;;
38901;SDS011;24661;53.566;9.910;2023-08-20T08:28:56;6.23;;;4.10;;
38901;SDS011;24661;53.566;9.910;2023-08-20T08:31:21;7.97;;;3.63;;
38901;SDS011;24661;53.566;9.910;2023-08-20T08:33:48;7.33;;;4.27;;
38901;SDS011;24661;53.566;9.910;2023-08-20T08:36:13;7.27;;;4.40;;
38901;SDS011;24661;53.566;9.910;2023-08-20T08:38:41;9.53;;;4.03;;
38901;SDS011;24661;53.566;9.910;2023-08-20T08:41:09;7.23;;;4.50;;
38901;SDS011;24661;53.566;9.910;2023-08-20T08:43:37;11.03;;;4.90;;
38901;SDS011;24661;53.566;9.910;2023-08-20T08:46:04;6.97;;;3.83;;
38901;SDS011;24661;53.566;9.910;2023-08-20T08:48:33;9.80;;;4.43;;
38901;SDS011;24661;53.566;9.910;2023-08-20T08:51:00;10.40;;;3.60;;
38901;SDS011;24661;53.566;9.910;2023-08-20T08:53:26;8.33;;;3.70;;
38901;SDS011;24661;53.566;9.910;2023-08-20T08:55:52;7.93;;;3.83;;
38901;SDS011;24661;53.566;9.910;2023-08-20T08:58:17;8.20;;;4.20;;
38901;SDS011;24661;53.566;9.910;2023-08-20T09:00:43;8.80;;;3.27;;
38901;SDS011;24661;53.566;9.910;2023-08-20T09:03:08;5.77;;;3.00;;
38901;SDS011;24661;53.566;9.910;2023-08-20T09:05:45;6.57;;;3.47;;
38901;SDS011;24661;53.566;9.910;2023-08-20T09:08:26;3.43;;;2.70;;
38901;SDS011;24661;53.566;9.910;2023-08-20T09:10:55;7.83;;;3.07;;
38901;SDS011;24661;53.566;9.910;2023-08-20T09:13:23;8.63;;;3.50;;
38901;SDS011;24661;53.566;9.910;2023-08-20T09:15:53;3.90;;;2.90;;
38901;SDS011;24661;53.566;9.910;2023-08-20T09:18:19;8.00;;;3.20;;
38901;SDS011;24661;53.566;9.910;2023-08-20T09:20:44;6.10;;;3.67;;
38901;SDS011;24661;53.566;9.910;2023-08-20T09:23:13;8.90;;;3.30;;
38901;SDS011;24661;53.566;9.910;2023-08-20T09:25:39;9.57;;;3.57;;
38901;SDS011;24661;53.566;9.910;2023-08-20T09:28:04;8.03;;;2.87;;
38901;SDS011;24661;53.566;9.910;2023-08-20T09:30:30;8.03;;;3.37;;
38901;SDS011;24661;53.566;9.910;2023-08-20T09:33:11;7.87;;;3.03;;
38901;SDS011;24661;53.566;9.910;2023-08-20T09:35:45;6.33;;;3.03;;
38901;SDS011;24661;53.566;9.910;2023-08-20T09:38:14;8.80;;;3.37;;
38901;SDS011;24661;53.566;9.910;2023-08-20T09:40:40;5.83;;;3.40;;
38901;SDS011;24661;53.566;9.910;2023-08-20T09:43:06;8.97;;;4.27;;
38901;SDS011;24661;53.566;9.910;2023-08-20T09:45:33;10.00;;;3.50;;
38901;SDS011;24661;53.566;9.910;2023-08-20T09:48:01;6.33;;;4.00;;
38901;SDS011;24661;53.566;9.910;2023-08-20T09:50:31;11.23;;;3.53;;
38901;SDS011;24661;53.566;9.910;2023-08-20T09:53:06;8.10;;;3.53;;
38901;SDS011;24661;53.566;9.910;2023-08-20T09:56:02;8.27;;;3.17;;
38901;SDS011;24661;53.566;9.910;2023-08-20T09:58:35;7.87;;;3.27;;
38901;SDS011;24661;53.566;9.910;2023-08-20T10:01:05;7.93;;;3.20;;
38901;SDS011;24661;53.566;9.910;2023-08-20T10:03:31;7.20;;;3.30;;
38901;SDS011;24661;53.566;9.910;2023-08-20T10:05:57;7.43;;;3.03;;
38901;SDS011;24661;53.566;9.910;2023-08-20T10:08:25;7.63;;;2.67;;
38901;SDS011;24661;53.566;9.910;2023-08-20T10:10:52;13.80;;;3.20;;
38901;SDS011;24661;53.566;9.910;2023-08-20T10:13:18;9.80;;;3.07;;
38901;SDS011;24661;53.566;9.910;2023-08-20T10:15:43;9.13;;;3.07;;
38901;SDS011;24661;53.566;9.910;2023-08-20T10:18:11;8.33;;;2.97;;
38901;SDS011;24661;53.566;9.910;2023-08-20T10:20:38;6.60;;;2.30;;
38901;SDS011;24661;53.566;9.910;2023-08-20T10:23:05;7.03;;;2.27;;
38901;SDS011;24661;53.566;9.910;2023-08-20T10:25:31;11.17;;;2.83;;
38901;SDS011;24661;53.566;9.910;2023-08-20T10:31:25;6.13;;;2.90;;
38901;SDS011;24661;53.566;9.910;2023-08-20T10:33:49;10.50;;;3.27;;
38901;SDS011;24661;53.566;9.910;2023-08-20T10:36:19;7.97;;;2.80;;
38901;SDS011;24661;53.566;9.910;2023-08-20T10:38:47;8.70;;;2.60;;
38901;SDS011;24661;53.566;9.910;2023-08-20T10:41:15;12.27;;;2.93;;
38901;SDS011;24661;53.566;9.910;2023-08-20T10:43:47;10.70;;;2.40;;
38901;SDS011;24661;53.566;9.910;2023-08-20T10:46:23;5.03;;;2.60;;
38901;SDS011;24661;53.566;9.910;2023-08-20T10:48:57;12.93;;;2.90;;
38901;SDS011;24661;53.566;9.910;2023-08-20T10:56:26;9.90;;;2.63;;
38901;SDS011;24661;53.566;9.910;2023-08-20T10:59:16;7.27;;;2.30;;
38901;SDS011;24661;53.566;9.910;2023-08-20T11:01:47;5.10;;;1.90;;
38901;SDS011;24661;53.566;9.910;2023-08-20T11:04:19;5.93;;;2.40;;
38901;SDS011;24661;53.566;9.910;2023-08-20T11:06:46;6.50;;;3.27;;
38901;SDS011;24661;53.566;9.910;2023-08-20T11:09:17;5.43;;;2.27;;
38901;SDS011;24661;53.566;9.910;2023-08-20T11:11:42;7.57;;;2.77;;
38901;SDS011;24661;53.566;9.910;2023-08-20T11:14:12;5.27;;;2.67;;
38901;SDS011;24661;53.566;9.910;2023-08-20T11:16:39;7.23;;;2.50;;
38901;SDS011;24661;53.566;9.910;2023-08-20T11:19:05;8.30;;;2.23;;
38901;SDS011;24661;53.566;9.910;2023-08-20T11:21:43;6.07;;;2.40;;
38901;SDS011;24661;53.566;9.910;2023-08-20T11:24:09;6.43;;;2.30;;
38901;SDS011;24661;53.566;9.910;2023-08-20T11:26:35;6.77;;;2.53;;
38901;SDS011;24661;53.566;9.910;2023-08-20T11:29:10;10.63;;;2.83;;
38901;SDS011;24661;53.566;9.910;2023-08-20T11:31:37;7.73;;;2.57;;
38901;SDS011;24661;53.566;9.910;2023-08-20T11:34:04;5.30;;;2.10;;
38901;SDS011;24661;53.566;9.910;2023-08-20T11:36:30;10.73;;;3.00;;
38901;SDS011;24661;53.566;9.910;2023-08-20T11:38:56;5.53;;;2.17;;
38901;SDS011;24661;53.566;9.910;2023-08-20T11:41:22;8.50;;;2.43;;
38901;SDS011;24661;53.566;9.910;2023-08-20T11:43:50;8.30;;;2.20;;
38901;SDS011;24661;53.566;9.910;2023-08-20T11:46:21;5.77;;;2.00;;
38901;SDS011;24661;53.566;9.910;2023-08-20T11:49:07;9.67;;;2.47;;
38901;SDS011;24661;53.566;9.910;2023-08-20T11:51:49;7.07;;;2.33;;
38901;SDS011;24661;53.566;9.910;2023-08-20T11:54:18;6.93;;;1.87;;
38901;SDS011;24661;53.566;9.910;2023-08-20T11:56:45;8.90;;;2.30;;
38901;SDS011;24661;53.566;9.910;2023-08-20T11:59:12;7.93;;;2.80;;
38901;SDS011;24661;53.566;9.910;2023-08-20T12:01:39;6.13;;;2.53;;
38901;SDS011;24661;53.566;9.910;2023-08-20T12:04:05;5.77;;;2.67;;
38901;SDS011;24661;53.566;9.910;2023-08-20T12:06:32;7.87;;;2.83;;
38901;SDS011;24661;53.566;9.910;2023-08-20T12:08:59;6.83;;;2.67;;
38901;SDS011;24661;53.566;9.910;2023-08-20T12:11:29;8.63;;;2.60;;
38901;SDS011;24661;53.566;9.910;2023-08-20T12:13:55;8.03;;;2.97;;
38901;SDS011;24661;53.566;9.910;2023-08-20T12:16:21;7.73;;;2.63;;
38901;SDS011;24661;53.566;9.910;2023-08-20T12:18:48;8.77;;;2.43;;
38901;SDS011;24661;53.566;9.910;2023-08-20T12:21:14;10.63;;;2.40;;
38901;SDS011;24661;53.566;9.910;2023-08-20T12:23:40;4.10;;;2.40;;
38901;SDS011;24661;53.566;9.910;2023-08-20T12:26:06;6.40;;;2.63;;
38901;SDS011;24661;53.566;9.910;2023-08-20T12:28:33;6.03;;;1.80;;
38901;SDS011;24661;53.566;9.910;2023-08-20T12:30:59;5.47;;;2.37;;
38901;SDS011;24661;53.566;9.910;2023-08-20T12:33:24;7.53;;;2.83;;
38901;SDS011;24661;53.566;9.910;2023-08-20T12:35:53;4.77;;;2.60;;
38901;SDS011;24661;53.566;9.910;2023-08-20T12:38:20;8.83;;;2.67;;
38901;SDS011;24661;53.566;9.910;2023-08-20T12:40:45;4.03;;;2.10;;
38901;SDS011;24661;53.566;9.910;2023-08-20T12:43:11;6.97;;;2.53;;
38901;SDS011;24661;53.566;9.910;2023-08-20T12:45:36;4.53;;;2.30;;
38901;SDS011;24661;53.566;9.910;2023-08-20T12:48:03;8.57;;;2.30;;
38901;SDS011;24661;53.566;9.910;2023-08-20T12:50:29;5.03;;;2.17;;
38901;SDS011;24661;53.566;9.910;2023-08-20T12:52:55;8.23;;;3.23;;
38901;SDS011;24661;53.566;9.910;2023-08-20T12:55:21;6.23;;;2.13;;
38901;SDS011;24661;53.566;9.910;2023-08-20T12:57:53;6.87;;;2.47;;
38901;SDS011;24661;53.566;9.910;2023-08-20T13:00:22;6.17;;;2.27;;
38901;SDS011;24661;53.566;9.910;2023-08-20T13:02:50;7.80;;;2.43;;
38901;SDS011;24661;53.566;9.910;2023-08-20T13:05:16;8.07;;;2.63;;
38901;SDS011;24661;53.566;9.910;2023-08-20T13:07:43;9.70;;;2.53;;
38901;SDS011;24661;53.566;9.910;2023-08-20T13:10:09;6.03;;;2.60;;
38901;SDS011;24661;53.566;9.910;2023-08-20T13:12:36;6.37;;;2.40;;
38901;SDS011;24661;53.566;9.910;2023-08-20T13:15:02;8.63;;;2.40;;
38901;SDS011;24661;53.566;9.910;2023-08-20T13:17:29;7.33;;;2.30;;
38901;SDS011;24661;53.566;9.910;2023-08-20T13:19:55;8.60;;;2.60;;
38901;SDS011;24661;53.566;9.910;2023-08-20T13:22:21;7.07;;;2.53;;
38901;SDS011;24661;53.566;9.910;2023-08-20T13:24:47;7.83;;;2.80;;
38901;SDS011;24661;53.566;9.910;2023-08-20T13:27:12;7.53;;;2.23;;
38901;SDS011;24661;53.566;9.910;2023-08-20T13:29:42;6.03;;;2.10;;
38901;SDS011;24661;53.566;9.910;2023-08-20T13:32:08;4.70;;;1.87;;
38901;SDS011;24661;53.566;9.910;2023-08-20T13:34:33;4.47;;;2.67;;
38901;SDS011;24661;53.566;9.910;2023-08-20T13:36:59;5.93;;;2.20;;
38901;SDS011;24661;53.566;9.910;2023-08-20T13:39:25;6.50;;;1.83;;
38901;SDS011;24661;53.566;9.910;2023-08-20T13:41:50;4.00;;;2.20;;
38901;SDS011;24661;53.566;9.910;2023-08-20T13:44:16;6.10;;;2.57;;
38901;SDS011;24661;53.566;9.910;2023-08-20T13:46:42;5.00;;;2.30;;
38901;SDS011;24661;53.566;9.910;2023-08-20T13:49:07;4.73;;;1.93;;
38901;SDS011;24661;53.566;9.910;2023-08-20T13:51:33;5.73;;;2.77;;
38901;SDS011;24661;53.566;9.910;2023-08-20T13:53:59;4.37;;;1.93;;
38901;SDS011;24661;53.566;9.910;2023-08-20T13:56:25;5.37;;;2.20;;
38901;SDS011;24661;53.566;9.910;2023-08-20T13:58:51;6.43;;;2.33;;
38901;SDS011;24661;53.566;9.910;2023-08-20T14:01:17;7.23;;;2.70;;
38901;SDS011;24661;53.566;9.910;2023-08-20T14:03:43;5.20;;;2.10;;
38901;SDS011;24661;53.566;9.910;2023-08-20T14:06:08;3.00;;;1.83;;
38901;SDS011;24661;53.566;9.910;2023-08-20T14:08:34;5.50;;;2.20;;
38901;SDS011;24661;53.566;9.910;2023-08-20T14:11:00;4.23;;;2.33;;
38901;SDS011;24661;53.566;9.910;2023-08-20T14:13:25;6.83;;;1.80;;
38901;SDS011;24661;53.566;9.910;2023-08-20T14:15:51;5.63;;;2.00;;
38901;SDS011;24661;53.566;9.910;2023-08-20T14:18:17;3.93;;;1.70;;
38901;SDS011;24661;53.566;9.910;2023-08-20T14:20:42;5.37;;;1.93;;
38901;SDS011;24661;53.566;9.910;2023-08-20T14:23:08;8.33;;;1.83;;
38901;SDS011;24661;53.566;9.910;2023-08-20T14:25:33;3.73;;;2.10;;
38901;SDS011;24661;53.566;9.910;2023-08-20T14:27:59;5.27;;;1.80;;
38901;SDS011;24661;53.566;9.910;2023-08-20T14:30:25;7.97;;;2.20;;
38901;SDS011;24661;53.566;9.910;2023-08-20T14:32:52;3.40;;;1.93;;
38901;SDS011;24661;53.566;9.910;2023-08-20T14:35:18;4.50;;;1.93;;
38901;SDS011;24661;53.566;9.910;2023-08-20T14:37:44;4.83;;;1.90;;
38901;SDS011;24661;53.566;9.910;2023-08-20T14:40:10;5.00;;;1.90;;
38901;SDS011;24661;53.566;9.910;2023-08-20T14:42:36;3.97;;;1.83;;
38901;SDS011;24661;53.566;9.910;2023-08-20T14:45:02;4.27;;;1.40;;
38901;SDS011;24661;53.566;9.910;2023-08-20T14:47:29;10.63;;;2.50;;